sensor_id;sensor_type;location;lat;lon;timestamp;pressure;altitude;pressure_sealevel;temperature;humidity
64192;BME280;50497;50.720;-2.084;2023-01-28T00:01:44;103025.91;;;1.19;100.00
64192;BME280;50497;50.720;-2.084;2023-01-28T00:04:13;103006.25;;;1.06;100.00
64192;BME280;50497;50.720;-2.084;2023-01-28T00:06:42;103021.97;;;1.03;100.00
64192;BME280;50497;50.720;-2.084;2023-01-28T00:09:11;103030.81;;;1.05;100.00
64192;BME280;50497;50.720;-2.084;2023-01-28T00:11:37;103033.78;;;1.18;100.00
64192;BME280;50497;50.720;-2.084;2023-01-28T00:14:03;103023.19;;;1.16;100.00
64192;BME280;50497;50.720;-2.084;2023-01-28T00:16:29;103018.97;;;1.23;100.00
64192;BME280;50497;50.720;-2.084;2023-01-28T00:18:55;103018.72;;;1.14;100.00
64192;BME280;50497;50.720;-2.084;2023-01-28T00:21:21;103016.22;;;1.18;100.00
64192;BME280;50497;50.720;-2.084;2023-01-28T00:23:51;103019.72;;;1.17;100.00
64192;BME280;50497;50.720;-2.084;2023-01-28T00:26:18;103018.09;;;1.22;100.00
64192;BME280;50497;50.720;-2.084;2023-01-28T00:28:44;103020.63;;;1.19;100.00
64192;BME280;50497;50.720;-2.084;2023-01-28T00:31:21;103016.16;;;1.15;100.00
64192;BME280;50497;50.720;-2.084;2023-01-28T00:33:50;103015.41;;;1.21;100.00
64192;BME280;50497;50.720;-2.084;2023-01-28T00:36:21;103004.72;;;1.15;100.00
64192;BME280;50497;50.720;-2.084;2023-01-28T00:38:54;103017.13;;;1.19;100.00
64192;BME280;50497;50.720;-2.084;2023-01-28T00:41:22;103000.75;;;0.99;100.00
64192;BME280;50497;50.720;-2.084;2023-01-28T00:43:49;103020.63;;;1.19;100.00
64192;BME280;50497;50.720;-2.084;2023-01-28T00:46:18;103012.91;;;1.25;100.00
64192;BME280;50497;50.720;-2.084;2023-01-28T00:48:47;102990.53;;;1.11;100.00
64192;BME280;50497;50.720;-2.084;2023-01-28T00:51:15;103017.34;;;1.26;100.00
64192;BME280;50497;50.720;-2.084;2023-01-28T00:53:47;103023.28;;;1.19;100.00
64192;BME280;50497;50.720;-2.084;2023-01-28T00:56:15;103024.78;;;1.11;100.00
64192;BME280;50497;50.720;-2.084;2023-01-28T00:58:41;103032.16;;;1.23;100.00
64192;BME280;50497;50.720;-2.084;2023-01-28T01:01:12;103030.34;;;1.20;100.00
64192;BME280;50497;50.720;-2.084;2023-01-28T01:03:38;103024.44;;;1.29;100.00
64192;BME280;50497;50.720;-2.084;2023-01-28T01:06:05;103037.47;;;1.24;100.00
64192;BME280;50497;50.720;-2.084;2023-01-28T01:08:30;103043.56;;;1.22;100.00
64192;BME280;50497;50.720;-2.084;2023-01-28T01:11:03;103033.31;;;1.33;100.00
64192;BME280;50497;50.720;-2.084;2023-01-28T01:13:29;103042.75;;;1.24;100.00
64192;BME280;50497;50.720;-2.084;2023-01-28T01:16:06;103049.81;;;1.25;100.00
64192;BME280;50497;50.720;-2.084;2023-01-28T01:18:32;103044.47;;;1.22;100.00
64192;BME280;50497;50.720;-2.084;2023-01-28T01:20:58;103044.78;;;1.33;100.00
64192;BME280;50497;50.720;-2.084;2023-01-28T01:23:31;103043.03;;;1.34;100.00
64192;BME280;50497;50.720;-2.084;2023-01-28T01:26:00;103038.63;;;1.34;100.00
64192;BME280;50497;50.720;-2.084;2023-01-28T01:28:26;103041.31;;;1.36;100.00
64192;BME280;50497;50.720;-2.084;2023-01-28T01:30:58;103039.41;;;1.30;100.00
64192;BME280;50497;50.720;-2.084;2023-01-28T01:33:24;103039.59;;;1.38;100.00
64192;BME280;50497;50.720;-2.084;2023-01-28T01:35:53;103026.13;;;1.27;100.00
64192;BME280;50497;50.720;-2.084;2023-01-28T01:38:24;103034.22;;;1.33;100.00
64192;BME280;50497;50.720;-2.084;2023-01-28T01:40:50;103045.72;;;1.35;100.00
64192;BME280;50497;50.720;-2.084;2023-01-28T01:43:21;103040.38;;;1.34;100.00
64192;BME280;50497;50.720;-2.084;2023-01-28T01:45:57;103037.00;;;1.39;100.00
64192;BME280;50497;50.720;-2.084;2023-01-28T01:48:31;103037.22;;;1.47;100.00
64192;BME280;50497;50.720;-2.084;2023-01-28T01:51:01;103046.81;;;1.43;100.00
64192;BME280;50497;50.720;-2.084;2023-01-28T01:53:30;103053.84;;;1.44;100.00
64192;BME280;50497;50.720;-2.084;2023-01-28T01:55:59;103044.41;;;1.51;100.00
64192;BME280;50497;50.720;-2.084;2023-01-28T01:58:32;103050.59;;;1.53;100.00
64192;BME280;50497;50.720;-2.084;2023-01-28T02:01:03;103047.00;;;1.50;100.00
64192;BME280;50497;50.720;-2.084;2023-01-28T02:03:40;103050.50;;;1.50;100.00
64192;BME280;50497;50.720;-2.084;2023-01-28T02:06:07;103047.84;;;1.48;100.00
64192;BME280;50497;50.720;-2.084;2023-01-28T02:08:36;103031.91;;;1.45;100.00
64192;BME280;50497;50.720;-2.084;2023-01-28T02:11:04;103056.91;;;1.58;100.00
64192;BME280;50497;50.720;-2.084;2023-01-28T02:13:42;103047.03;;;1.51;100.00
64192;BME280;50497;50.720;-2.084;2023-01-28T02:16:12;103043.44;;;1.49;100.00
64192;BME280;50497;50.720;-2.084;2023-01-28T02:18:42;103042.38;;;1.42;100.00
64192;BME280;50497;50.720;-2.084;2023-01-28T02:29:40;103056.91;;;1.58;100.00
64192;BME280;50497;50.720;-2.084;2023-01-28T02:32:16;103063.94;;;1.59;100.00
64192;BME280;50497;50.720;-2.084;2023-01-28T02:34:47;103064.91;;;1.61;100.00
64192;BME280;50497;50.720;-2.084;2023-01-28T02:39:50;103042.66;;;1.52;100.00
64192;BME280;50497;50.720;-2.084;2023-01-28T02:42:28;103068.56;;;1.66;100.00
64192;BME280;50497;50.720;-2.084;2023-01-28T02:44:54;103063.38;;;1.70;100.00
64192;BME280;50497;50.720;-2.084;2023-01-28T02:47:23;103070.34;;;1.69;100.00
64192;BME280;50497;50.720;-2.084;2023-01-28T02:50:12;103070.19;;;1.61;100.00
64192;BME280;50497;50.720;-2.084;2023-01-28T02:56:09;103059.63;;;1.61;100.00
64192;BME280;50497;50.720;-2.084;2023-01-28T02:58:46;103065.00;;;1.64;100.00
64192;BME280;50497;50.720;-2.084;2023-01-28T03:01:33;103058.88;;;1.67;100.00
64192;BME280;50497;50.720;-2.084;2023-01-28T03:04:21;103059.56;;;1.60;100.00
64192;BME280;50497;50.720;-2.084;2023-01-28T03:06:52;103077.06;;;1.56;100.00
64192;BME280;50497;50.720;-2.084;2023-01-28T03:09:21;103068.19;;;1.54;100.00
64192;BME280;50497;50.720;-2.084;2023-01-28T03:12:00;103070.03;;;1.57;100.00
64192;BME280;50497;50.720;-2.084;2023-01-28T03:15:03;103075.38;;;1.58;100.00
64192;BME280;50497;50.720;-2.084;2023-01-28T03:21:14;103060.22;;;1.51;100.00
64192;BME280;50497;50.720;-2.084;2023-01-28T03:27:15;103103.00;;;1.71;100.00
64192;BME280;50497;50.720;-2.084;2023-01-28T03:30:17;103095.91;;;1.70;100.00
64192;BME280;50497;50.720;-2.084;2023-01-28T03:33:03;103099.38;;;1.69;100.00
64192;BME280;50497;50.720;-2.084;2023-01-28T03:35:48;103085.50;;;1.75;100.00
64192;BME280;50497;50.720;-2.084;2023-01-28T03:38:33;103072.81;;;1.61;100.00
64192;BME280;50497;50.720;-2.084;2023-01-28T03:41:19;103087.03;;;1.66;100.00
64192;BME280;50497;50.720;-2.084;2023-01-28T03:43:45;103074.47;;;1.58;100.00
64192;BME280;50497;50.720;-2.084;2023-01-28T03:46:10;103096.66;;;1.66;100.00
64192;BME280;50497;50.720;-2.084;2023-01-28T03:48:40;103101.00;;;1.64;100.00
64192;BME280;50497;50.720;-2.084;2023-01-28T03:51:05;103107.13;;;1.61;100.00
64192;BME280;50497;50.720;-2.084;2023-01-28T03:53:31;103094.75;;;1.60;100.00
64192;BME280;50497;50.720;-2.084;2023-01-28T03:55:58;103106.56;;;1.73;100.00
64192;BME280;50497;50.720;-2.084;2023-01-28T03:58:24;103105.72;;;1.76;100.00
64192;BME280;50497;50.720;-2.084;2023-01-28T04:01:04;103109.28;;;1.76;100.00
64192;BME280;50497;50.720;-2.084;2023-01-28T04:03:30;103109.31;;;1.78;100.00
64192;BME280;50497;50.720;-2.084;2023-01-28T04:06:04;103108.47;;;1.79;100.00
64192;BME280;50497;50.720;-2.084;2023-01-28T04:08:33;103113.59;;;1.73;100.00
64192;BME280;50497;50.720;-2.084;2023-01-28T04:11:02;103108.13;;;1.66;100.00
64192;BME280;50497;50.720;-2.084;2023-01-28T04:13:44;103111.06;;;1.77;100.00
64192;BME280;50497;50.720;-2.084;2023-01-28T04:16:14;103108.38;;;1.76;100.00
64192;BME280;50497;50.720;-2.084;2023-01-28T04:18:41;103102.16;;;1.74;100.00
64192;BME280;50497;50.720;-2.084;2023-01-28T04:21:06;103106.69;;;1.78;100.00
64192;BME280;50497;50.720;-2.084;2023-01-28T04:23:39;103080.81;;;1.64;100.00
64192;BME280;50497;50.720;-2.084;2023-01-28T04:26:05;103116.41;;;1.80;100.00
64192;BME280;50497;50.720;-2.084;2023-01-28T04:28:34;103101.22;;;1.72;100.00
64192;BME280;50497;50.720;-2.084;2023-01-28T04:31:05;103119.19;;;1.85;100.00
64192;BME280;50497;50.720;-2.084;2023-01-28T04:33:34;103117.34;;;1.82;100.00
64192;BME280;50497;50.720;-2.084;2023-01-28T04:36:03;103110.44;;;1.86;100.00
64192;BME280;50497;50.720;-2.084;2023-01-28T04:38:36;103108.59;;;1.83;100.00
64192;BME280;50497;50.720;-2.084;2023-01-28T04:41:11;103110.13;;;1.75;100.00
64192;BME280;50497;50.720;-2.084;2023-01-28T04:43:38;103118.88;;;1.74;100.00
64192;BME280;50497;50.720;-2.084;2023-01-28T04:46:05;103116.38;;;1.79;100.00
64192;BME280;50497;50.720;-2.084;2023-01-28T04:48:35;103108.59;;;1.83;100.00
64192;BME280;50497;50.720;-2.084;2023-01-28T04:51:01;103105.16;;;1.86;100.00
64192;BME280;50497;50.720;-2.084;2023-01-28T04:53:31;103116.38;;;1.79;100.00
64192;BME280;50497;50.720;-2.084;2023-01-28T04:55:57;103109.38;;;1.81;100.00
64192;BME280;50497;50.720;-2.084;2023-01-28T04:58:31;103111.44;;;1.91;100.00
64192;BME280;50497;50.720;-2.084;2023-01-28T05:01:00;103088.66;;;1.61;100.00
64192;BME280;50497;50.720;-2.084;2023-01-28T05:03:28;103117.78;;;1.66;100.00
64192;BME280;50497;50.720;-2.084;2023-01-28T05:06:06;103111.78;;;1.72;100.00
64192;BME280;50497;50.720;-2.084;2023-01-28T05:08:38;103099.47;;;1.72;100.00
64192;BME280;50497;50.720;-2.084;2023-01-28T05:11:07;103088.97;;;1.74;100.00
64192;BME280;50497;50.720;-2.084;2023-01-28T05:13:32;103099.31;;;1.66;100.00
64192;BME280;50497;50.720;-2.084;2023-01-28T05:16:02;103096.72;;;1.67;100.00
64192;BME280;50497;50.720;-2.084;2023-01-28T05:18:28;103103.66;;;1.64;100.00
64192;BME280;50497;50.720;-2.084;2023-01-28T05:20:53;103103.66;;;1.64;100.00
64192;BME280;50497;50.720;-2.084;2023-01-28T05:23:19;103091.44;;;1.67;100.00
64192;BME280;50497;50.720;-2.084;2023-01-28T05:25:45;103095.97;;;1.72;100.00
64192;BME280;50497;50.720;-2.084;2023-01-28T05:28:10;103078.75;;;1.54;100.00
64192;BME280;50497;50.720;-2.084;2023-01-28T05:30:37;103101.94;;;1.64;100.00
64192;BME280;50497;50.720;-2.084;2023-01-28T05:33:03;103098.47;;;1.67;100.00
64192;BME280;50497;50.720;-2.084;2023-01-28T05:35:29;103095.88;;;1.69;100.00
64192;BME280;50497;50.720;-2.084;2023-01-28T05:37:54;103094.53;;;1.51;100.00
64192;BME280;50497;50.720;-2.084;2023-01-28T05:40:20;103096.75;;;1.37;100.00
64192;BME280;50497;50.720;-2.084;2023-01-28T05:42:46;103122.72;;;1.54;100.00
64192;BME280;50497;50.720;-2.084;2023-01-28T05:45:11;103125.41;;;1.55;100.00
64192;BME280;50497;50.720;-2.084;2023-01-28T05:47:37;103126.44;;;1.60;100.00
64192;BME280;50497;50.720;-2.084;2023-01-28T05:50:07;103102.25;;;1.45;100.00
64192;BME280;50497;50.720;-2.084;2023-01-28T05:52:37;103115.00;;;1.60;100.00
64192;BME280;50497;50.720;-2.084;2023-01-28T05:55:07;103100.38;;;1.41;100.00
64192;BME280;50497;50.720;-2.084;2023-01-28T05:57:32;103119.34;;;1.59;100.00
64192;BME280;50497;50.720;-2.084;2023-01-28T06:00:03;103130.53;;;1.51;100.00
64192;BME280;50497;50.720;-2.084;2023-01-28T06:02:30;103135.19;;;1.59;100.00
64192;BME280;50497;50.720;-2.084;2023-01-28T06:05:01;103124.38;;;1.50;100.00
64192;BME280;50497;50.720;-2.084;2023-01-28T06:07:31;103115.78;;;1.57;100.00
64192;BME280;50497;50.720;-2.084;2023-01-28T06:10:00;103119.34;;;1.59;100.00
64192;BME280;50497;50.720;-2.084;2023-01-28T06:12:31;103135.91;;;1.54;100.00
64192;BME280;50497;50.720;-2.084;2023-01-28T06:15:00;103128.22;;;1.61;100.00
64192;BME280;50497;50.720;-2.084;2023-01-28T06:17:26;103113.47;;;1.68;100.00
64192;BME280;50497;50.720;-2.084;2023-01-28T06:19:51;103122.84;;;1.58;100.00
64192;BME280;50497;50.720;-2.084;2023-01-28T06:22:20;103120.19;;;1.57;100.00
64192;BME280;50497;50.720;-2.084;2023-01-28T06:24:46;103123.66;;;1.56;100.00
64192;BME280;50497;50.720;-2.084;2023-01-28T06:27:12;103128.09;;;1.57;100.00
64192;BME280;50497;50.720;-2.084;2023-01-28T06:29:41;103115.53;;;1.48;100.00
64192;BME280;50497;50.720;-2.084;2023-01-28T06:32:13;103129.75;;;1.53;100.00
64192;BME280;50497;50.720;-2.084;2023-01-28T06:34:42;103131.00;;;1.67;100.00
64192;BME280;50497;50.720;-2.084;2023-01-28T06:37:08;103115.50;;;1.46;100.00
64192;BME280;50497;50.720;-2.084;2023-01-28T06:39:40;103124.72;;;1.62;100.00
64192;BME280;50497;50.720;-2.084;2023-01-28T06:42:10;103129.94;;;1.61;100.00
64192;BME280;50497;50.720;-2.084;2023-01-28T06:44:37;103129.81;;;1.55;100.00
64192;BME280;50497;50.720;-2.084;2023-01-28T06:47:03;103153.53;;;1.55;100.00
64192;BME280;50497;50.720;-2.084;2023-01-28T06:49:33;103129.75;;;1.53;100.00
64192;BME280;50497;50.720;-2.084;2023-01-28T06:52:02;103135.91;;;1.54;100.00
64192;BME280;50497;50.720;-2.084;2023-01-28T06:54:33;103141.25;;;1.55;100.00
64192;BME280;50497;50.720;-2.084;2023-01-28T06:57:02;103145.06;;;1.66;100.00
64192;BME280;50497;50.720;-2.084;2023-01-28T06:59:31;103122.78;;;1.55;100.00
64192;BME280;50497;50.720;-2.084;2023-01-28T07:02:00;103143.50;;;1.73;100.00
64192;BME280;50497;50.720;-2.084;2023-01-28T07:04:30;103146.09;;;1.72;100.00
64192;BME280;50497;50.720;-2.084;2023-01-28T07:06:55;103155.44;;;1.60;100.00
64192;BME280;50497;50.720;-2.084;2023-01-28T07:09:28;103145.13;;;1.68;100.00
64192;BME280;50497;50.720;-2.084;2023-01-28T07:12:00;103146.09;;;1.72;100.00
64192;BME280;50497;50.720;-2.084;2023-01-28T07:14:30;103136.25;;;1.66;100.00
64192;BME280;50497;50.720;-2.084;2023-01-28T07:16:55;103142.13;;;1.56;100.00
64192;BME280;50497;50.720;-2.084;2023-01-28T07:19:31;103141.75;;;1.74;100.00
64192;BME280;50497;50.720;-2.084;2023-01-28T07:22:03;103147.91;;;1.73;100.00
64192;BME280;50497;50.720;-2.084;2023-01-28T07:24:30;103137.34;;;1.73;100.00
64192;BME280;50497;50.720;-2.084;2023-01-28T07:26:59;103144.31;;;1.71;100.00
64192;BME280;50497;50.720;-2.084;2023-01-28T07:29:25;103120.41;;;1.66;100.00
64192;BME280;50497;50.720;-2.084;2023-01-28T07:31:57;103139.16;;;1.75;100.00
64192;BME280;50497;50.720;-2.084;2023-01-28T07:34:30;103143.16;;;1.61;100.00
64192;BME280;50497;50.720;-2.084;2023-01-28T07:36:58;103138.69;;;1.58;100.00
64192;BME280;50497;50.720;-2.084;2023-01-28T07:39:23;103152.13;;;1.67;100.00
64192;BME280;50497;50.720;-2.084;2023-01-28T07:41:55;103155.41;;;1.59;100.00
64192;BME280;50497;50.720;-2.084;2023-01-28T07:44:23;103153.94;;;1.69;100.00
64192;BME280;50497;50.720;-2.084;2023-01-28T07:46:49;103135.19;;;1.59;100.00
64192;BME280;50497;50.720;-2.084;2023-01-28T07:49:20;103160.50;;;1.53;100.00
64192;BME280;50497;50.720;-2.084;2023-01-28T07:51:48;103144.66;;;1.51;100.00
64192;BME280;50497;50.720;-2.084;2023-01-28T07:54:21;103162.53;;;1.61;100.00
64192;BME280;50497;50.720;-2.084;2023-01-28T07:56:57;103164.44;;;1.67;100.00
64192;BME280;50497;50.720;-2.084;2023-01-28T07:59:22;103167.97;;;1.67;100.00
64192;BME280;50497;50.720;-2.084;2023-01-28T08:01:51;103174.59;;;1.53;100.00
64192;BME280;50497;50.720;-2.084;2023-01-28T08:04:19;103169.47;;;1.58;100.00
64192;BME280;50497;50.720;-2.084;2023-01-28T08:06:44;103174.09;;;1.66;100.00
64192;BME280;50497;50.720;-2.084;2023-01-28T08:09:10;103174.69;;;1.56;100.00
64192;BME280;50497;50.720;-2.084;2023-01-28T08:11:40;103178.31;;;1.60;100.00
64192;BME280;50497;50.720;-2.084;2023-01-28T08:14:06;103157.16;;;1.58;100.00
64192;BME280;50497;50.720;-2.084;2023-01-28T08:16:32;103177.19;;;1.82;100.00
64192;BME280;50497;50.720;-2.084;2023-01-28T08:19:01;103188.66;;;1.84;100.00
64192;BME280;50497;50.720;-2.084;2023-01-28T08:21:27;103189.78;;;1.92;100.00
64192;BME280;50497;50.720;-2.084;2023-01-28T08:23:52;103171.81;;;1.79;100.00
64192;BME280;50497;50.720;-2.084;2023-01-28T08:26:19;103189.31;;;1.75;100.00
64192;BME280;50497;50.720;-2.084;2023-01-28T08:28:44;103186.56;;;1.72;100.00
64192;BME280;50497;50.720;-2.084;2023-01-28T08:31:13;103164.72;;;1.76;100.00
64192;BME280;50497;50.720;-2.084;2023-01-28T08:33:41;103188.19;;;1.99;100.00
64192;BME280;50497;50.720;-2.084;2023-01-28T08:36:06;103197.09;;;2.01;100.00
64192;BME280;50497;50.720;-2.084;2023-01-28T08:38:32;103188.50;;;2.10;100.00
64192;BME280;50497;50.720;-2.084;2023-01-28T08:40:58;103200.09;;;2.15;100.00
64192;BME280;50497;50.720;-2.084;2023-01-28T08:43:24;103182.44;;;2.14;100.00
64192;BME280;50497;50.720;-2.084;2023-01-28T08:45:51;103190.72;;;2.26;100.00
64192;BME280;50497;50.720;-2.084;2023-01-28T08:48:18;103186.25;;;2.25;100.00
64192;BME280;50497;50.720;-2.084;2023-01-28T08:50:47;103189.59;;;2.18;100.00
64192;BME280;50497;50.720;-2.084;2023-01-28T08:53:20;103194.97;;;2.21;100.00
64192;BME280;50497;50.720;-2.084;2023-01-28T08:55:50;103197.88;;;2.32;100.00
64192;BME280;50497;50.720;-2.084;2023-01-28T08:58:18;103196.25;;;2.37;100.00
64192;BME280;50497;50.720;-2.084;2023-01-28T09:00:44;103201.53;;;2.37;100.00
64192;BME280;50497;50.720;-2.084;2023-01-28T09:03:15;103197.38;;;2.47;100.00
64192;BME280;50497;50.720;-2.084;2023-01-28T09:05:41;103181.50;;;2.45;100.00
64192;BME280;50497;50.720;-2.084;2023-01-28T09:08:12;103197.53;;;2.51;100.00
64192;BME280;50497;50.720;-2.084;2023-01-28T09:10:37;103194.13;;;2.57;100.00
64192;BME280;50497;50.720;-2.084;2023-01-28T09:13:14;103206.56;;;2.61;100.00
64192;BME280;50497;50.720;-2.084;2023-01-28T09:15:40;103209.47;;;2.72;100.00
64192;BME280;50497;50.720;-2.084;2023-01-28T09:18:06;103190.84;;;2.66;100.00
64192;BME280;50497;50.720;-2.084;2023-01-28T09:20:33;103213.41;;;2.88;100.00
64192;BME280;50497;50.720;-2.084;2023-01-28T09:23:01;103187.69;;;2.81;100.00
64192;BME280;50497;50.720;-2.084;2023-01-28T09:25:27;103210.88;;;2.92;100.00
64192;BME280;50497;50.720;-2.084;2023-01-28T09:27:53;103223.84;;;2.83;100.00
64192;BME280;50497;50.720;-2.084;2023-01-28T09:30:19;103224.19;;;2.95;100.00
64192;BME280;50497;50.720;-2.084;2023-01-28T09:32:49;103236.69;;;3.03;100.00
64192;BME280;50497;50.720;-2.084;2023-01-28T09:35:15;103226.38;;;3.15;100.00
64192;BME280;50497;50.720;-2.084;2023-01-28T09:37:42;103226.88;;;3.37;100.00
64192;BME280;50497;50.720;-2.084;2023-01-28T09:40:14;103223.59;;;3.48;100.00
64192;BME280;50497;50.720;-2.084;2023-01-28T09:43:01;103223.88;;;3.61;100.00
64192;BME280;50497;50.720;-2.084;2023-01-28T09:45:37;103218.72;;;3.67;100.00
64192;BME280;50497;50.720;-2.084;2023-01-28T09:48:12;103217.84;;;3.68;100.00
64192;BME280;50497;50.720;-2.084;2023-01-28T09:50:42;103223.41;;;3.80;100.00
64192;BME280;50497;50.720;-2.084;2023-01-28T09:55:55;103248.03;;;3.76;100.00
64192;BME280;50497;50.720;-2.084;2023-01-28T09:58:21;103241.97;;;3.80;100.00
64192;BME280;50497;50.720;-2.084;2023-01-28T10:01:03;103244.63;;;3.82;100.00
64192;BME280;50497;50.720;-2.084;2023-01-28T10:04:32;103245.09;;;4.06;100.00
64192;BME280;50497;50.720;-2.084;2023-01-28T10:07:08;103238.16;;;4.10;100.00
64192;BME280;50497;50.720;-2.084;2023-01-28T10:09:49;103228.72;;;4.26;100.00
64192;BME280;50497;50.720;-2.084;2023-01-28T10:12:56;103232.47;;;4.37;100.00
64192;BME280;50497;50.720;-2.084;2023-01-28T10:18:10;103241.31;;;4.39;100.00
64192;BME280;50497;50.720;-2.084;2023-01-28T10:20:59;103242.41;;;4.51;100.00
64192;BME280;50497;50.720;-2.084;2023-01-28T10:23:33;103243.34;;;4.53;100.00
64192;BME280;50497;50.720;-2.084;2023-01-28T10:26:19;103231.06;;;4.58;100.00
64192;BME280;50497;50.720;-2.084;2023-01-28T10:29:02;103266.69;;;4.74;100.00
64192;BME280;50497;50.720;-2.084;2023-01-28T10:31:33;103263.47;;;4.92;100.00
64192;BME280;50497;50.720;-2.084;2023-01-28T10:34:00;103286.56;;;4.99;100.00
64192;BME280;50497;50.720;-2.084;2023-01-28T10:36:33;103290.94;;;4.95;100.00
64192;BME280;50497;50.720;-2.084;2023-01-28T10:38:59;103286.47;;;4.93;100.00
64192;BME280;50497;50.720;-2.084;2023-01-28T10:41:29;103274.38;;;5.10;100.00
64192;BME280;50497;50.720;-2.084;2023-01-28T10:43:58;103267.25;;;5.08;100.00
64192;BME280;50497;50.720;-2.084;2023-01-28T10:46:34;103256.78;;;5.15;100.00
64192;BME280;50497;50.720;-2.084;2023-01-28T10:49:14;103248.81;;;5.15;100.00
64192;BME280;50497;50.720;-2.084;2023-01-28T10:51:45;103242.97;;;5.41;100.00
64192;BME280;50497;50.720;-2.084;2023-01-28T10:54:34;103235.03;;;5.43;100.00
64192;BME280;50497;50.720;-2.084;2023-01-28T10:57:08;103253.63;;;5.43;100.00
64192;BME280;50497;50.720;-2.084;2023-01-28T10:59:41;103266.63;;;5.24;100.00
64192;BME280;50497;50.720;-2.084;2023-01-28T11:02:35;103255.50;;;5.50;100.00
64192;BME280;50497;50.720;-2.084;2023-01-28T11:05:17;103257.34;;;5.55;100.00
64192;BME280;50497;50.720;-2.084;2023-01-28T11:07:48;103242.44;;;5.65;100.00
64192;BME280;50497;50.720;-2.084;2023-01-28T11:10:38;103216.44;;;5.43;100.00
64192;BME280;50497;50.720;-2.084;2023-01-28T11:13:26;103219.69;;;5.87;100.00
64192;BME280;50497;50.720;-2.084;2023-01-28T11:16:15;103216.69;;;6.33;100.00
64192;BME280;50497;50.720;-2.084;2023-01-28T11:18:51;103199.25;;;6.63;100.00
64192;BME280;50497;50.720;-2.084;2023-01-28T11:21:23;103225.19;;;6.92;100.00
64192;BME280;50497;50.720;-2.084;2023-01-28T11:24:00;103231.53;;;7.09;100.00
64192;BME280;50497;50.720;-2.084;2023-01-28T11:26:29;103231.56;;;7.15;100.00
64192;BME280;50497;50.720;-2.084;2023-01-28T11:28:59;103231.69;;;7.38;100.00
64192;BME280;50497;50.720;-2.084;2023-01-28T11:31:25;103235.34;;;7.51;100.00
64192;BME280;50497;50.720;-2.084;2023-01-28T11:33:59;103243.94;;;7.10;100.00
64192;BME280;50497;50.720;-2.084;2023-01-28T11:36:28;103228.91;;;7.12;100.00
64192;BME280;50497;50.720;-2.084;2023-01-28T11:38:58;103253.59;;;6.93;100.00
64192;BME280;50497;50.720;-2.084;2023-01-28T11:41:35;103231.47;;;7.03;100.00
64192;BME280;50497;50.720;-2.084;2023-01-28T12:07:55;103250.00;;;6.88;100.00
64192;BME280;50497;50.720;-2.084;2023-01-28T12:16:01;103259.56;;;6.67;100.00
64192;BME280;50497;50.720;-2.084;2023-01-28T12:21:05;103255.94;;;6.56;100.00
64192;BME280;50497;50.720;-2.084;2023-01-28T12:26:38;103242.50;;;6.43;100.00
64192;BME280;50497;50.720;-2.084;2023-01-28T12:32:23;103245.22;;;6.50;100.00
64192;BME280;50497;50.720;-2.084;2023-01-28T12:42:43;103224.06;;;6.65;100.00
64192;BME280;50497;50.720;-2.084;2023-01-28T12:45:22;103231.00;;;6.46;100.00
64192;BME280;50497;50.720;-2.084;2023-01-28T12:48:03;103220.41;;;6.54;100.00
64192;BME280;50497;50.720;-2.084;2023-01-28T12:50:37;103220.41;;;6.54;100.00
64192;BME280;50497;50.720;-2.084;2023-01-28T12:56:14;103194.06;;;6.83;100.00
64192;BME280;50497;50.720;-2.084;2023-01-28T12:58:52;103201.94;;;6.66;100.00
64192;BME280;50497;50.720;-2.084;2023-01-28T13:01:25;103193.16;;;6.79;100.00
64192;BME280;50497;50.720;-2.084;2023-01-28T13:06:55;103206.34;;;6.62;100.00
64192;BME280;50497;50.720;-2.084;2023-01-28T13:09:25;103187.69;;;6.64;100.00
64192;BME280;50497;50.720;-2.084;2023-01-28T13:11:56;103209.25;;;6.96;100.00
64192;BME280;50497;50.720;-2.084;2023-01-28T13:14:32;103204.00;;;7.04;100.00
64192;BME280;50497;50.720;-2.084;2023-01-28T13:17:09;103206.50;;;6.85;100.00
64192;BME280;50497;50.720;-2.084;2023-01-28T13:19:37;103195.88;;;6.90;100.00
64192;BME280;50497;50.720;-2.084;2023-01-28T13:22:36;103194.09;;;6.84;100.00
64192;BME280;50497;50.720;-2.084;2023-01-28T13:25:32;103185.25;;;6.92;100.00
64192;BME280;50497;50.720;-2.084;2023-01-28T13:28:03;103176.38;;;6.88;100.00
64192;BME280;50497;50.720;-2.084;2023-01-28T13:30:46;103193.97;;;6.69;100.00
64192;BME280;50497;50.720;-2.084;2023-01-28T13:33:31;103188.72;;;6.78;100.00
64192;BME280;50497;50.720;-2.084;2023-01-28T13:35:58;103190.41;;;6.70;100.00
64192;BME280;50497;50.720;-2.084;2023-01-28T13:38:26;103177.16;;;6.75;100.00
64192;BME280;50497;50.720;-2.084;2023-01-28T13:40:59;103178.06;;;6.78;100.00
64192;BME280;50497;50.720;-2.084;2023-01-28T13:46:07;103170.97;;;6.77;100.00
64192;BME280;50497;50.720;-2.084;2023-01-28T13:48:50;103169.22;;;6.78;100.00
64192;BME280;50497;50.720;-2.084;2023-01-28T13:51:25;103177.25;;;6.84;100.00
64192;BME280;50497;50.720;-2.084;2023-01-28T13:54:03;103164.94;;;7.01;100.00
64192;BME280;50497;50.720;-2.084;2023-01-28T13:56:58;103176.31;;;6.82;100.00
64192;BME280;50497;50.720;-2.084;2023-01-28T14:02:36;103181.63;;;6.77;100.00
64192;BME280;50497;50.720;-2.084;2023-01-28T14:05:33;103166.59;;;6.87;100.00
64192;BME280;50497;50.720;-2.084;2023-01-28T14:19:03;103158.31;;;6.48;100.00
64192;BME280;50497;50.720;-2.084;2023-01-28T14:21:33;103145.13;;;6.59;100.00
64192;BME280;50497;50.720;-2.084;2023-01-28T14:24:10;103150.38;;;6.52;100.00
64192;BME280;50497;50.720;-2.084;2023-01-28T14:32:25;103147.75;;;6.55;100.00
64192;BME280;50497;50.720;-2.084;2023-01-28T14:35:03;103145.03;;;6.50;100.00
64192;BME280;50497;50.720;-2.084;2023-01-28T14:37:36;103131.75;;;6.52;100.00
64192;BME280;50497;50.720;-2.084;2023-01-28T14:40:07;103137.00;;;6.41;100.00
64192;BME280;50497;50.720;-2.084;2023-01-28T14:42:44;103126.50;;;6.58;100.00
64192;BME280;50497;50.720;-2.084;2023-01-28T14:48:13;103139.69;;;6.47;100.00